createdAt,value
2018-10-19T00:00:06.205Z,3.12
2018-10-19T00:00:39.285Z,3.20
2018-10-19T00:01:12.515Z,3.25
2018-10-19T00:01:45.578Z,3.05
2018-10-19T00:02:18.585Z,3.60
2018-10-19T00:02:51.789Z,3.55
2018-10-19T00:03:24.927Z,2.90
2018-10-19T00:03:58.302Z,3.08
2018-10-19T00:04:31.736Z,2.77
2018-10-19T00:05:05.189Z,3.52
2018-10-19T00:05:38.192Z,2.92
2018-10-19T00:06:11.189Z,2.87
2018-10-19T00:06:44.321Z,3.00
2018-10-19T00:07:19.463Z,3.27
2018-10-19T00:07:53.409Z,3.70
2018-10-19T00:08:27.017Z,3.05
2018-10-19T00:09:01.481Z,3.33
2018-10-19T00:09:35.517Z,2.90
2018-10-19T00:10:09.422Z,3.25
2018-10-19T00:10:42.897Z,2.80
2018-10-19T00:11:15.877Z,3.22
2018-10-19T00:11:48.966Z,3.00
2018-10-19T00:12:22.208Z,3.20
2018-10-19T00:12:55.270Z,3.30
2018-10-19T00:13:28.952Z,3.87
2018-10-19T00:14:02.204Z,3.52
2018-10-19T00:14:35.518Z,3.40
2018-10-19T00:15:10.001Z,3.25
2018-10-19T00:15:45.497Z,3.10
2018-10-19T00:16:18.587Z,3.00
2018-10-19T00:16:51.919Z,2.87
2018-10-19T00:17:26.120Z,3.20
2018-10-19T00:17:59.723Z,3.05
2018-10-19T00:18:33.900Z,3.92
2018-10-19T00:19:06.975Z,4.15
2018-10-19T00:19:40.050Z,3.77
2018-10-19T00:20:13.119Z,2.72
2018-10-19T00:20:46.209Z,3.05
2018-10-19T00:21:19.280Z,4.25
2018-10-19T00:21:52.303Z,3.02
2018-10-19T00:22:25.318Z,2.95
2018-10-19T00:22:58.371Z,3.10
2018-10-19T00:23:31.378Z,3.35
2018-10-19T00:24:04.639Z,2.90
2018-10-19T00:24:37.849Z,2.85
2018-10-19T00:25:11.626Z,2.98
2018-10-19T00:25:44.916Z,3.75
2018-10-19T00:26:18.134Z,2.95
2018-10-19T00:26:51.117Z,3.37
2018-10-19T00:27:24.138Z,3.72
2018-10-19T00:27:57.251Z,2.85
2018-10-19T00:28:30.310Z,3.00
2018-10-19T00:29:03.348Z,3.60
2018-10-19T00:29:36.317Z,3.20
2018-10-19T00:30:10.029Z,4.12
2018-10-19T00:30:43.175Z,3.83
2018-10-19T00:31:16.176Z,3.52
2018-10-19T00:31:49.515Z,3.00
2018-10-19T00:32:22.720Z,3.60
2018-10-19T00:32:55.747Z,2.70
2018-10-19T00:33:29.064Z,3.62
2018-10-19T00:34:02.217Z,3.20
2018-10-19T00:34:35.265Z,3.47
2018-10-19T00:35:09.210Z,3.47
2018-10-19T00:35:42.449Z,3.37
2018-10-19T00:36:15.790Z,3.30
2018-10-19T00:36:49.005Z,3.50
2018-10-19T00:37:22.162Z,2.67
2018-10-19T00:37:55.436Z,3.60
2018-10-19T00:38:28.449Z,3.95
2018-10-19T00:39:01.549Z,3.17
2018-10-19T00:39:34.669Z,3.45
2018-10-19T00:40:07.730Z,3.45
2018-10-19T00:40:41.069Z,3.70
2018-10-19T00:41:14.266Z,3.40
2018-10-19T00:41:47.348Z,3.10
2018-10-19T00:42:20.545Z,3.45
2018-10-19T00:42:54.558Z,3.35
2018-10-19T00:43:27.769Z,3.00
2018-10-19T00:44:00.931Z,3.10
2018-10-19T00:44:33.977Z,3.30
2018-10-19T00:45:07.230Z,3.30
2018-10-19T00:45:46.445Z,2.33
2018-10-19T00:46:19.852Z,2.83
2018-10-19T00:46:53.026Z,2.77
2018-10-19T00:47:26.155Z,3.15
2018-10-19T00:48:01.577Z,3.00
2018-10-19T00:48:34.616Z,3.42
2018-10-19T00:49:07.842Z,2.83
2018-10-19T00:49:40.962Z,2.80
2018-10-19T00:50:14.295Z,2.75
2018-10-19T00:50:47.848Z,2.75
2018-10-19T00:51:21.447Z,2.50
2018-10-19T00:51:54.685Z,3.22
2018-10-19T00:52:27.808Z,2.40
2018-10-19T00:53:01.042Z,2.80
2018-10-19T00:53:34.218Z,3.25
2018-10-19T00:54:07.669Z,2.55
2018-10-19T00:54:40.690Z,2.75
2018-10-19T00:55:13.957Z,2.75
2018-10-19T00:55:47.113Z,2.90
2018-10-19T00:56:20.190Z,3.00
2018-10-19T00:56:53.198Z,3.05
2018-10-19T00:57:26.432Z,2.42
2018-10-19T00:57:59.461Z,3.77
2018-10-19T00:58:32.586Z,3.17
2018-10-19T00:59:05.638Z,3.37
2018-10-19T00:59:38.689Z,2.40
2018-10-19T01:00:12.095Z,2.98
2018-10-19T01:00:45.339Z,2.95
2018-10-19T01:01:18.389Z,3.05
2018-10-19T01:01:51.605Z,3.15
2018-10-19T01:02:24.959Z,2.62
2018-10-19T01:02:58.413Z,3.17
2018-10-19T01:03:31.757Z,4.55
2018-10-19T01:04:05.557Z,2.80
2018-10-19T01:04:38.573Z,2.90
2018-10-19T01:05:11.841Z,2.90
2018-10-19T01:05:45.069Z,2.70
2018-10-19T01:06:18.265Z,2.70
2018-10-19T01:06:51.488Z,2.35
2018-10-19T01:07:24.771Z,2.42
2018-10-19T01:07:57.788Z,3.27
2018-10-19T01:08:30.777Z,3.35
2018-10-19T01:09:05.062Z,2.67
2018-10-19T01:09:38.136Z,2.47
2018-10-19T01:10:14.637Z,2.42
2018-10-19T01:10:47.723Z,2.72
2018-10-19T01:11:20.725Z,2.22
2018-10-19T01:11:53.745Z,2.92
2018-10-19T01:12:26.786Z,3.75
2018-10-19T01:13:00.635Z,2.85
2018-10-19T01:13:33.945Z,2.42
2018-10-19T01:14:07.176Z,2.65
2018-10-19T01:14:40.309Z,2.72
2018-10-19T01:15:13.347Z,2.40
2018-10-19T01:15:46.564Z,2.30
2018-10-19T01:16:19.545Z,2.60
2018-10-19T01:16:52.854Z,2.42
2018-10-19T01:17:26.054Z,2.20
2018-10-19T01:17:59.444Z,2.50
2018-10-19T01:18:32.489Z,2.72
2018-10-19T01:19:05.672Z,2.60
2018-10-19T01:19:38.840Z,2.80
2018-10-19T01:20:12.238Z,2.65
2018-10-19T01:20:45.224Z,2.35
2018-10-19T01:21:18.247Z,2.90
2018-10-19T01:21:51.449Z,2.25
2018-10-19T01:22:24.481Z,2.47
2018-10-19T01:22:57.557Z,2.50
2018-10-19T01:23:30.631Z,2.22
2018-10-19T01:24:03.754Z,2.77
2018-10-19T01:24:36.790Z,2.37
2018-10-19T01:25:10.010Z,2.40
2018-10-19T01:25:43.052Z,2.08
2018-10-19T01:26:16.047Z,3.33
2018-10-19T01:26:49.288Z,3.55
2018-10-19T01:27:22.345Z,2.70
2018-10-19T01:27:55.364Z,2.00
2018-10-19T01:28:28.432Z,2.37
2018-10-19T01:29:01.652Z,2.50
2018-10-19T01:29:34.704Z,2.30
2018-10-19T01:30:08.248Z,2.70
2018-10-19T01:30:41.457Z,2.00
2018-10-19T01:31:14.585Z,2.92
2018-10-19T01:31:47.781Z,2.30
2018-10-19T01:32:21.139Z,2.15
2018-10-19T01:32:54.159Z,2.00
2018-10-19T01:33:27.251Z,2.37
2018-10-19T01:34:00.545Z,2.42
2018-10-19T01:34:33.660Z,2.45
2018-10-19T01:35:08.088Z,2.75
2018-10-19T01:35:41.078Z,2.80
2018-10-19T01:36:14.066Z,2.30
2018-10-19T01:36:47.109Z,2.77
2018-10-19T01:37:20.170Z,2.25
2018-10-19T01:37:53.232Z,2.80
2018-10-19T01:38:26.371Z,2.85
2018-10-19T01:38:59.718Z,2.45
2018-10-19T01:39:32.980Z,2.17
2018-10-19T01:40:06.962Z,3.55
2018-10-19T01:40:39.966Z,2.10
2018-10-19T01:41:13.050Z,2.75
2018-10-19T01:41:46.133Z,3.30
2018-10-19T01:42:19.114Z,3.87
2018-10-19T01:42:52.261Z,3.47
2018-10-19T01:43:25.528Z,2.75
2018-10-19T01:43:58.812Z,2.25
2018-10-19T01:44:31.799Z,2.15
2018-10-19T01:45:05.660Z,2.35
2018-10-19T01:45:43.145Z,2.60
2018-10-19T01:46:16.134Z,2.45
2018-10-19T01:46:50.090Z,3.10
2018-10-19T01:47:23.063Z,2.98
2018-10-19T01:47:56.379Z,2.25
2018-10-19T01:48:29.658Z,2.65
2018-10-19T01:49:02.685Z,3.00
2018-10-19T01:49:35.702Z,2.60
2018-10-19T01:50:10.033Z,2.40
2018-10-19T01:50:43.082Z,3.37
2018-10-19T01:51:16.495Z,2.00
2018-10-19T01:51:49.513Z,2.77
2018-10-19T01:52:22.516Z,2.50
2018-10-19T01:52:55.610Z,2.50
2018-10-19T01:53:28.609Z,2.02
2018-10-19T01:54:01.815Z,2.33
2018-10-19T01:54:35.131Z,1.90
2018-10-19T01:55:08.360Z,2.20
2018-10-19T01:55:41.565Z,2.00
2018-10-19T01:56:14.672Z,2.87
2018-10-19T01:56:47.855Z,2.00
2018-10-19T01:57:21.848Z,2.10
2018-10-19T01:57:54.850Z,2.22
2018-10-19T01:58:27.863Z,1.77
2018-10-19T01:59:00.920Z,2.85
2018-10-19T01:59:33.946Z,2.62
2018-10-19T02:00:07.504Z,2.80
2018-10-19T02:00:41.259Z,2.12
2018-10-19T02:01:14.308Z,2.10
2018-10-19T02:01:47.523Z,2.62
2018-10-19T02:02:20.759Z,2.25
2018-10-19T02:02:53.819Z,2.47
2018-10-19T02:03:27.209Z,1.95
2018-10-19T02:04:01.041Z,2.70
2018-10-19T02:04:34.293Z,2.30
2018-10-19T02:05:07.496Z,2.25
2018-10-19T02:05:40.669Z,2.70
2018-10-19T02:06:13.716Z,1.90
2018-10-19T02:06:46.749Z,2.70
2018-10-19T02:07:19.875Z,2.30
2018-10-19T02:07:53.664Z,2.35
2018-10-19T02:08:26.915Z,2.30
2018-10-19T02:09:00.155Z,2.70
2018-10-19T02:09:33.437Z,2.12
2018-10-19T02:10:06.666Z,3.58
2018-10-19T02:10:40.364Z,2.25
2018-10-19T02:11:13.524Z,2.30
2018-10-19T02:11:46.505Z,2.85
2018-10-19T02:12:20.069Z,2.77
2018-10-19T02:12:53.056Z,2.47
2018-10-19T02:13:26.059Z,2.50
2018-10-19T02:13:59.236Z,3.25
2018-10-19T02:14:32.317Z,2.67
2018-10-19T02:15:05.863Z,2.70
2018-10-19T02:15:39.042Z,1.80
2018-10-19T02:16:12.103Z,2.52
2018-10-19T02:16:45.451Z,2.00
2018-10-19T02:17:19.051Z,3.27
2018-10-19T02:17:52.338Z,2.00
2018-10-19T02:18:25.605Z,2.00
2018-10-19T02:18:58.730Z,2.33
2018-10-19T02:19:32.003Z,2.70
2018-10-19T02:20:05.122Z,2.52
2018-10-19T02:20:38.214Z,2.00
2018-10-19T02:21:11.563Z,3.47
2018-10-19T02:21:44.786Z,2.22
2018-10-19T02:22:17.763Z,2.10
2018-10-19T02:22:51.188Z,2.55
2018-10-19T02:23:24.478Z,2.25
2018-10-19T02:23:57.520Z,1.82
2018-10-19T02:24:30.599Z,2.60
2018-10-19T02:25:03.720Z,2.75
2018-10-19T02:25:36.906Z,2.15
2018-10-19T02:26:10.005Z,2.15
2018-10-19T02:26:42.974Z,2.72
2018-10-19T02:27:16.104Z,2.52
2018-10-19T02:27:49.301Z,2.95
2018-10-19T02:28:22.596Z,2.33
2018-10-19T02:28:55.771Z,2.37
2018-10-19T02:29:28.820Z,2.65
2018-10-19T02:30:02.233Z,2.55
2018-10-19T02:30:35.284Z,2.20
2018-10-19T02:31:08.469Z,2.70
2018-10-19T02:31:41.816Z,2.00
2018-10-19T02:32:14.957Z,2.00
2018-10-19T02:32:48.007Z,2.17
2018-10-19T02:33:21.395Z,2.12
2018-10-19T02:33:54.473Z,1.90
2018-10-19T02:34:27.625Z,2.10
2018-10-19T02:35:01.027Z,2.45
2018-10-19T02:35:34.052Z,2.70
2018-10-19T02:36:07.272Z,2.70
2018-10-19T02:36:40.264Z,2.52
2018-10-19T02:37:13.362Z,2.52
2018-10-19T02:37:46.531Z,2.15
2018-10-19T02:38:19.699Z,2.37
2018-10-19T02:38:52.847Z,2.80
2018-10-19T02:39:26.012Z,3.05
2018-10-19T02:39:59.040Z,2.80
2018-10-19T02:40:32.109Z,3.20
2018-10-19T02:41:05.564Z,3.25
2018-10-19T02:41:38.619Z,3.45
2018-10-19T02:42:11.820Z,2.30
2018-10-19T02:42:44.931Z,2.42
2018-10-19T02:43:18.009Z,2.45
2018-10-19T02:43:51.070Z,2.60
2018-10-19T02:44:24.070Z,2.40
2018-10-19T02:44:57.296Z,2.85
2018-10-19T02:45:33.758Z,2.87
2018-10-19T02:46:07.262Z,3.05
2018-10-19T02:46:40.411Z,2.65
2018-10-19T02:47:13.776Z,2.55
2018-10-19T02:47:46.815Z,3.05
2018-10-19T02:48:19.990Z,3.12
2018-10-19T02:48:53.308Z,3.20
2018-10-19T02:49:26.481Z,3.37
2018-10-19T02:49:59.517Z,3.22
2018-10-19T02:50:32.627Z,2.27
2018-10-19T02:51:05.672Z,3.10
2018-10-19T02:51:38.744Z,2.90
2018-10-19T02:52:11.944Z,2.90
2018-10-19T02:52:44.995Z,2.80
2018-10-19T02:53:18.419Z,2.87
2018-10-19T02:53:51.525Z,2.45
2018-10-19T02:54:24.685Z,2.40
2018-10-19T02:54:58.062Z,2.62
2018-10-19T02:55:31.077Z,3.45
2018-10-19T02:56:04.335Z,2.65
2018-10-19T02:56:37.474Z,3.12
2018-10-19T02:57:10.619Z,3.10
2018-10-19T02:57:43.871Z,3.25
2018-10-19T02:58:17.148Z,2.47
2018-10-19T02:58:50.383Z,3.05
2018-10-19T02:59:23.724Z,2.50
2018-10-19T02:59:56.806Z,2.45
2018-10-19T03:00:29.847Z,2.60
2018-10-19T03:01:02.868Z,2.80
2018-10-19T03:01:35.927Z,2.72
2018-10-19T03:02:08.948Z,3.15
2018-10-19T03:02:42.306Z,3.00
2018-10-19T03:03:16.189Z,3.37
2018-10-19T03:03:49.265Z,3.10
2018-10-19T03:04:22.361Z,3.67
2018-10-19T03:04:59.450Z,3.85
2018-10-19T03:05:32.458Z,3.55
2018-10-19T03:06:05.468Z,2.65
2018-10-19T03:06:38.574Z,2.67
2018-10-19T03:07:11.746Z,3.42
2018-10-19T03:07:44.949Z,3.12
2018-10-19T03:08:18.033Z,3.70
2018-10-19T03:08:51.108Z,2.70
2018-10-19T03:09:24.169Z,3.98
2018-10-19T03:09:57.156Z,3.15
2018-10-19T03:10:30.205Z,2.70
2018-10-19T03:11:03.488Z,3.05
2018-10-19T03:11:36.432Z,3.72
2018-10-19T03:12:09.772Z,3.17
2018-10-19T03:12:42.844Z,2.80
2018-10-19T03:13:15.876Z,3.15
2018-10-19T03:13:48.848Z,3.00
2018-10-19T03:14:21.953Z,2.17
2018-10-19T03:14:54.988Z,2.30
2018-10-19T03:15:28.008Z,2.62
2018-10-19T03:16:01.073Z,2.80
2018-10-19T03:16:34.165Z,3.35
2018-10-19T03:17:07.319Z,3.05
2018-10-19T03:17:40.400Z,3.58
2018-10-19T03:18:13.369Z,3.30
2018-10-19T03:18:46.712Z,2.92
2018-10-19T03:19:20.061Z,2.77
2018-10-19T03:19:53.320Z,3.40
2018-10-19T03:20:26.357Z,2.83
2018-10-19T03:20:59.410Z,3.02
2018-10-19T03:21:32.490Z,3.37
2018-10-19T03:22:05.467Z,3.08
2018-10-19T03:22:38.589Z,3.45
2018-10-19T03:23:11.781Z,2.85
2018-10-19T03:23:45.247Z,3.12
2018-10-19T03:24:18.333Z,2.80
2018-10-19T03:24:51.386Z,2.50
2018-10-19T03:25:24.501Z,2.67
2018-10-19T03:25:57.665Z,2.80
2018-10-19T03:26:30.794Z,2.83
2018-10-19T03:27:03.859Z,2.40
2018-10-19T03:27:37.121Z,3.40
2018-10-19T03:28:10.105Z,3.70
2018-10-19T03:28:43.995Z,2.75
2018-10-19T03:29:17.162Z,2.45
2018-10-19T03:29:50.464Z,3.42
2018-10-19T03:30:23.636Z,2.87
2018-10-19T03:30:56.763Z,2.45
2018-10-19T03:31:30.526Z,2.85
2018-10-19T03:32:03.579Z,3.90
2018-10-19T03:32:36.804Z,3.60
2018-10-19T03:33:09.937Z,3.17
2018-10-19T03:33:42.903Z,2.90
2018-10-19T03:34:15.907Z,2.90
2018-10-19T03:34:49.509Z,2.55
2018-10-19T03:35:22.831Z,4.03
2018-10-19T03:35:56.015Z,3.30
2018-10-19T03:36:29.047Z,3.60
2018-10-19T03:37:02.148Z,3.10
2018-10-19T03:37:35.257Z,3.10
2018-10-19T03:38:08.324Z,3.77
2018-10-19T03:38:41.578Z,3.17
2018-10-19T03:39:14.943Z,3.72
2018-10-19T03:39:47.910Z,2.92
2018-10-19T03:40:20.976Z,3.05
2018-10-19T03:40:53.993Z,4.17
2018-10-19T03:41:27.129Z,2.72
2018-10-19T03:42:00.199Z,3.10
2018-10-19T03:42:33.256Z,2.77
2018-10-19T03:43:06.252Z,3.00
2018-10-19T03:43:39.732Z,3.47
2018-10-19T03:44:12.817Z,3.45
2018-10-19T03:44:45.950Z,2.90
2018-10-19T03:45:19.171Z,3.85
2018-10-19T03:45:52.250Z,3.58
2018-10-19T03:46:25.461Z,3.67
2018-10-19T03:46:58.702Z,2.55
2018-10-19T03:47:31.729Z,3.87
2018-10-19T03:48:04.867Z,3.42
2018-10-19T03:48:38.215Z,2.80
2018-10-19T03:49:11.350Z,3.55
2018-10-19T03:49:44.490Z,3.50
2018-10-19T03:50:17.568Z,3.40
2018-10-19T03:50:50.609Z,3.65
2018-10-19T03:51:23.632Z,3.77
2018-10-19T03:51:56.726Z,3.77
2018-10-19T03:52:29.876Z,3.30
2018-10-19T03:53:03.062Z,4.78
2018-10-19T03:53:36.130Z,4.60
2018-10-19T03:54:09.140Z,3.80
2018-10-19T03:54:42.716Z,4.00
2018-10-19T03:55:15.755Z,3.20
2018-10-19T03:55:49.091Z,3.47
2018-10-19T03:56:22.227Z,3.52
2018-10-19T03:56:55.264Z,3.10
2018-10-19T03:57:28.463Z,2.70
2018-10-19T03:58:02.228Z,3.95
2018-10-19T03:58:35.354Z,3.45
2018-10-19T03:59:08.374Z,3.08
2018-10-19T03:59:41.449Z,4.25
2018-10-19T04:00:14.662Z,3.27
2018-10-19T04:00:47.747Z,3.37
2018-10-19T04:01:20.964Z,2.90
2018-10-19T04:01:54.057Z,3.80
2018-10-19T04:02:27.026Z,3.42
2018-10-19T04:03:00.066Z,3.70
2018-10-19T04:03:33.163Z,3.77
2018-10-19T04:04:07.236Z,3.85
2018-10-19T04:04:40.415Z,3.80
2018-10-19T04:05:13.539Z,3.12
2018-10-19T04:05:46.837Z,3.60
2018-10-19T04:06:20.172Z,3.12
2018-10-19T04:06:53.266Z,2.80
2018-10-19T04:07:26.363Z,3.47
2018-10-19T04:07:59.384Z,3.25
2018-10-19T04:08:32.537Z,3.15
2018-10-19T04:09:07.624Z,3.35
2018-10-19T04:09:40.962Z,4.47
2018-10-19T04:10:13.990Z,3.27
2018-10-19T04:10:47.439Z,3.42
2018-10-19T04:11:20.830Z,4.00
2018-10-19T04:11:53.927Z,3.08
2018-10-19T04:12:27.075Z,3.83
2018-10-19T04:13:00.075Z,3.98
2018-10-19T04:13:33.289Z,3.55
2018-10-19T04:14:07.122Z,4.33
2018-10-19T04:14:40.378Z,3.55
2018-10-19T04:15:13.592Z,5.03
2018-10-19T04:15:47.189Z,2.95
2018-10-19T04:16:20.293Z,3.33
2018-10-19T04:16:53.309Z,3.25
2018-10-19T04:17:26.549Z,3.00
2018-10-19T04:17:59.589Z,4.53
2018-10-19T04:18:32.813Z,3.30
2018-10-19T04:19:06.012Z,3.70
2018-10-19T04:19:39.281Z,2.83
2018-10-19T04:20:12.300Z,3.30
2018-10-19T04:20:45.557Z,4.30
2018-10-19T04:21:18.758Z,5.10
2018-10-19T04:21:51.926Z,3.77
2018-10-19T04:22:25.160Z,3.62
2018-10-19T04:23:02.639Z,3.40
2018-10-19T04:23:35.686Z,4.65
2018-10-19T04:24:08.805Z,3.95
2018-10-19T04:24:42.236Z,5.03
2018-10-19T04:25:15.322Z,3.30
2018-10-19T04:25:48.473Z,3.75
2018-10-19T04:26:22.546Z,3.90
2018-10-19T04:26:55.610Z,3.67
2018-10-19T04:27:28.732Z,5.42
2018-10-19T04:28:02.831Z,4.47
2018-10-19T04:28:36.249Z,3.87
2018-10-19T04:29:09.406Z,3.40
2018-10-19T04:29:42.518Z,4.12
2018-10-19T04:30:15.747Z,3.70
2018-10-19T04:30:48.973Z,3.60
2018-10-19T04:31:22.002Z,3.25
2018-10-19T04:31:55.285Z,3.42
2018-10-19T04:32:29.079Z,3.20
2018-10-19T04:33:02.933Z,4.80
2018-10-19T04:33:35.966Z,3.75
2018-10-19T04:34:08.966Z,3.83
2018-10-19T04:34:42.065Z,3.70
2018-10-19T04:35:15.380Z,3.67
2018-10-19T04:35:49.069Z,4.35
2018-10-19T04:36:22.812Z,5.17
2018-10-19T04:36:59.561Z,4.33
2018-10-19T04:37:32.898Z,4.05
2018-10-19T04:38:06.200Z,4.42
2018-10-19T04:38:39.289Z,3.55
2018-10-19T04:39:12.547Z,4.03
2018-10-19T04:39:45.597Z,4.33
2018-10-19T04:40:19.537Z,3.98
2018-10-19T04:40:53.149Z,4.28
2018-10-19T04:41:26.466Z,4.25
2018-10-19T04:41:59.961Z,4.28
2018-10-19T04:42:33.377Z,5.00
2018-10-19T04:43:06.403Z,5.05
2018-10-19T04:43:39.429Z,4.25
2018-10-19T04:44:12.507Z,4.33
2018-10-19T04:44:45.839Z,3.80
2018-10-19T04:45:19.527Z,4.33
2018-10-19T04:45:52.733Z,4.10
2018-10-19T04:46:25.904Z,4.28
2018-10-19T04:46:59.723Z,3.55
2018-10-19T04:47:32.732Z,4.42
2018-10-19T04:48:05.819Z,5.78
2018-10-19T04:48:39.030Z,6.65
2018-10-19T04:49:12.079Z,7.55
2018-10-19T04:49:45.298Z,8.38
2018-10-19T04:50:18.540Z,6.62
2018-10-19T04:53:37.538Z,2.65
2018-10-19T04:54:10.697Z,3.72
2018-10-19T04:54:43.887Z,2.95
2018-10-19T04:55:19.515Z,3.45
2018-10-19T04:55:52.763Z,3.20
2018-10-19T04:56:25.980Z,4.30
2018-10-19T04:56:59.028Z,5.53
2018-10-19T04:57:32.346Z,4.55
2018-10-19T04:58:05.422Z,3.50
2018-10-19T04:58:39.766Z,2.98
2018-10-19T04:59:13.088Z,3.45
2018-10-19T04:59:46.221Z,4.08
2018-10-19T05:00:20.663Z,3.40
2018-10-19T05:00:53.845Z,3.25
2018-10-19T05:01:26.904Z,3.20
2018-10-19T05:02:00.171Z,4.00
2018-10-19T05:02:33.810Z,3.27
2018-10-19T05:03:07.185Z,3.10
2018-10-19T05:03:40.501Z,4.00
2018-10-19T05:04:14.158Z,5.87
2018-10-19T05:04:47.194Z,5.78
2018-10-19T05:05:20.665Z,5.65
2018-10-19T05:06:00.335Z,4.83
2018-10-19T05:06:33.320Z,3.42
2018-10-19T05:07:06.444Z,3.90
2018-10-19T05:07:39.619Z,3.58
2018-10-19T05:08:12.840Z,4.30
2018-10-19T05:08:46.197Z,5.50
2018-10-19T05:09:19.490Z,4.35
2018-10-19T05:09:52.668Z,4.33
2018-10-19T05:10:25.705Z,3.75
2018-10-19T05:10:58.969Z,4.47
2018-10-19T05:11:32.021Z,3.52
2018-10-19T05:12:05.128Z,3.62
2018-10-19T05:12:38.535Z,3.35
2018-10-19T05:13:12.206Z,3.55
2018-10-19T05:13:46.192Z,3.50
2018-10-19T05:14:19.253Z,3.80
2018-10-19T05:14:52.330Z,3.40
2018-10-19T05:15:25.412Z,3.60
2018-10-19T05:15:58.558Z,3.58
2018-10-19T05:16:31.681Z,4.05
2018-10-19T05:17:05.175Z,4.53
2018-10-19T05:17:38.452Z,4.25
2018-10-19T05:18:11.684Z,4.90
2018-10-19T05:18:44.738Z,4.40
2018-10-19T05:19:18.111Z,3.80
2018-10-19T05:19:51.362Z,3.58
2018-10-19T05:20:24.779Z,3.80
2018-10-19T05:20:58.040Z,3.05
2018-10-19T05:21:31.179Z,3.87
2018-10-19T05:22:04.322Z,3.95
2018-10-19T05:22:37.730Z,4.67
2018-10-19T05:23:11.404Z,4.05
2018-10-19T05:23:44.534Z,3.17
2018-10-19T05:24:17.575Z,3.62
2018-10-19T05:24:50.645Z,5.40
2018-10-19T05:25:23.651Z,4.08
2018-10-19T05:25:56.716Z,5.08
2018-10-19T05:26:29.884Z,3.65
2018-10-19T05:27:02.929Z,5.20
2018-10-19T05:27:36.175Z,5.47
2018-10-19T05:28:09.427Z,4.40
2018-10-19T05:28:42.662Z,4.00
2018-10-19T05:29:15.773Z,5.08
2018-10-19T05:29:48.779Z,5.70
2018-10-19T05:30:21.999Z,5.12
2018-10-19T05:30:54.976Z,4.22
2018-10-19T05:31:28.136Z,6.35
2018-10-19T05:32:01.263Z,4.22
2018-10-19T05:32:35.174Z,4.40
2018-10-19T05:33:08.301Z,4.20
2018-10-19T05:33:41.546Z,4.67
2018-10-19T05:34:14.655Z,4.92
2018-10-19T05:34:48.211Z,4.30
2018-10-19T05:35:21.531Z,4.42
2018-10-19T05:35:54.817Z,4.70
2018-10-19T05:36:27.842Z,4.83
2018-10-19T05:37:00.973Z,4.45
2018-10-19T05:37:34.092Z,5.20
2018-10-19T05:38:07.925Z,4.90
2018-10-19T05:38:41.342Z,4.37
2018-10-19T05:39:14.518Z,5.40
2018-10-19T05:39:47.634Z,4.70
2018-10-19T05:40:20.743Z,5.00
2018-10-19T05:40:53.886Z,4.55
2018-10-19T05:41:27.292Z,4.45
2018-10-19T05:42:00.455Z,4.50
2018-10-19T05:43:37.645Z,4.70
2018-10-19T05:44:10.707Z,4.80
2018-10-19T05:44:43.787Z,5.00
2018-10-19T05:45:17.858Z,5.30
2018-10-19T05:45:51.157Z,6.33
2018-10-19T05:46:25.283Z,4.42
2018-10-19T05:47:00.316Z,4.75
2018-10-19T05:47:33.401Z,4.60
2018-10-19T05:48:06.652Z,4.45
2018-10-19T05:48:40.241Z,4.37
2018-10-19T05:49:13.377Z,4.92
2018-10-19T05:49:46.618Z,4.40
2018-10-19T05:50:19.776Z,4.90
2018-10-19T05:50:52.827Z,5.05
2018-10-19T05:51:26.871Z,5.25
2018-10-19T05:52:00.147Z,4.72
2018-10-19T05:52:33.432Z,5.15
2018-10-19T05:53:06.777Z,5.62
2018-10-19T05:53:39.836Z,4.92
2018-10-19T05:54:12.972Z,5.47
2018-10-19T05:54:46.082Z,5.15
2018-10-19T05:55:19.520Z,5.30
2018-10-19T05:55:52.580Z,5.20
2018-10-19T05:56:25.803Z,4.72
2018-10-19T05:56:58.910Z,5.30
2018-10-19T05:57:32.331Z,4.60
2018-10-19T05:58:05.598Z,5.80
2018-10-19T05:58:39.035Z,4.12
2018-10-19T05:59:12.272Z,4.35
2018-10-19T05:59:46.007Z,4.20
2018-10-19T06:00:19.248Z,4.28
2018-10-19T06:00:52.468Z,5.37
2018-10-19T06:01:25.877Z,5.62
2018-10-19T06:01:59.118Z,6.53
2018-10-19T06:02:33.053Z,5.37
2018-10-19T06:03:06.352Z,5.08
2018-10-19T06:03:40.158Z,5.35
2018-10-19T06:04:13.616Z,5.22
2018-10-19T06:04:47.146Z,5.33
2018-10-19T06:05:20.556Z,5.05
2018-10-19T06:05:53.611Z,4.10
2018-10-19T06:06:26.810Z,3.70
2018-10-19T06:07:00.936Z,4.25
2018-10-19T06:07:34.150Z,4.28
2018-10-19T06:08:07.204Z,4.65
2018-10-19T06:08:40.184Z,5.20
2018-10-19T06:09:13.338Z,4.78
2018-10-19T06:09:46.616Z,4.65
2018-10-19T06:10:19.667Z,4.08
2018-10-19T06:10:53.806Z,4.30
2018-10-19T06:11:27.013Z,4.20
2018-10-19T06:12:00.192Z,4.10
2018-10-19T06:12:33.173Z,5.20
2018-10-19T06:13:06.198Z,4.80
2018-10-19T06:13:39.296Z,4.20
2018-10-19T06:14:12.361Z,3.85
2018-10-19T06:14:45.452Z,4.62
2018-10-19T06:15:18.604Z,4.15
2018-10-19T06:15:51.590Z,4.08
2018-10-19T06:16:24.543Z,4.30
2018-10-19T06:16:57.522Z,3.40
2018-10-19T06:17:30.466Z,4.40
2018-10-19T06:18:03.489Z,4.10
2018-10-19T06:18:36.494Z,3.95
2018-10-19T06:19:10.471Z,4.08
2018-10-19T06:19:43.416Z,3.85
2018-10-19T06:20:16.464Z,4.67
2018-10-19T06:20:49.364Z,4.62
2018-10-19T06:21:22.403Z,3.65
2018-10-19T06:21:55.349Z,5.22
2018-10-19T06:22:28.422Z,3.77
2018-10-19T06:23:01.519Z,4.90
2018-10-19T06:23:34.486Z,4.53
2018-10-19T06:24:08.526Z,3.80
2018-10-19T06:24:41.462Z,4.40
2018-10-19T06:25:14.399Z,4.03
2018-10-19T06:25:47.410Z,3.80
2018-10-19T06:26:20.453Z,4.10
2018-10-19T06:26:53.391Z,4.20
2018-10-19T06:27:26.415Z,4.30
2018-10-19T06:27:59.371Z,4.45
2018-10-19T06:28:32.325Z,3.67
2018-10-19T06:29:05.439Z,4.40
2018-10-19T06:29:38.480Z,4.30
2018-10-19T06:30:11.638Z,4.00
2018-10-19T06:30:44.869Z,5.40
2018-10-19T06:31:17.841Z,6.00
2018-10-19T06:31:50.961Z,5.00
2018-10-19T06:32:24.062Z,5.25
2018-10-19T06:32:57.260Z,5.25
2018-10-19T06:33:30.268Z,4.70
2018-10-19T06:34:03.599Z,5.17
2018-10-19T06:34:36.571Z,4.95
2018-10-19T06:35:10.000Z,4.85
2018-10-19T06:35:43.192Z,4.90
2018-10-19T06:36:16.365Z,5.28
2018-10-19T06:36:49.546Z,4.67
2018-10-19T06:37:22.520Z,4.53
2018-10-19T06:37:55.536Z,4.60
2018-10-19T06:38:28.701Z,4.20
2018-10-19T06:39:01.894Z,3.70
2018-10-19T06:39:34.839Z,4.40
2018-10-19T06:40:07.891Z,4.25
2018-10-19T06:40:40.949Z,4.25
2018-10-19T06:41:14.084Z,5.35
2018-10-19T06:41:47.154Z,3.58
2018-10-19T06:42:20.448Z,4.22
2018-10-19T06:42:53.575Z,3.95
2018-10-19T06:43:26.465Z,4.90
2018-10-19T06:43:59.479Z,5.20
2018-10-19T06:44:32.411Z,4.55
2018-10-19T06:45:05.705Z,4.00
2018-10-19T06:45:38.763Z,5.08
2018-10-19T06:46:11.765Z,4.35
2018-10-19T06:46:44.972Z,4.30
2018-10-19T06:47:18.453Z,5.30
2018-10-19T06:47:51.337Z,5.17
2018-10-19T06:48:24.393Z,5.00
2018-10-19T06:48:57.371Z,3.70
2018-10-19T06:49:30.306Z,4.25
2018-10-19T06:50:03.409Z,4.10
2018-10-19T06:50:36.551Z,4.35
2018-10-19T06:51:09.962Z,4.92
2018-10-19T06:51:43.213Z,8.13
2018-10-19T06:52:16.318Z,8.35
2018-10-19T06:52:49.566Z,5.25
2018-10-19T06:53:22.750Z,3.95
2018-10-19T06:53:55.840Z,4.62
2018-10-19T06:54:28.979Z,4.33
2018-10-19T06:55:02.616Z,4.25
2018-10-19T06:55:35.566Z,4.00
2018-10-19T06:56:08.573Z,4.25
2018-10-19T06:56:41.740Z,4.17
2018-10-19T06:57:14.768Z,4.20
2018-10-19T06:57:48.124Z,4.65
2018-10-19T06:58:21.288Z,4.75
2018-10-19T06:58:54.311Z,4.33
2018-10-19T06:59:27.446Z,4.80
2018-10-19T07:00:00.377Z,4.53
2018-10-19T07:00:33.346Z,5.25
2018-10-19T07:01:06.344Z,5.08
2018-10-19T07:01:39.286Z,4.50
2018-10-19T07:02:12.261Z,4.80
2018-10-19T07:02:45.246Z,4.75
2018-10-19T07:03:18.190Z,4.80
2018-10-19T07:03:51.180Z,4.53
2018-10-19T07:04:24.159Z,4.45
2018-10-19T07:04:57.557Z,5.85
2018-10-19T07:05:30.584Z,4.55
2018-10-19T07:06:03.494Z,5.33
2018-10-19T07:06:36.430Z,5.08
2018-10-19T07:07:09.409Z,4.92
2018-10-19T07:07:42.612Z,6.20
2018-10-19T07:08:15.606Z,5.72
2018-10-19T07:08:48.679Z,5.62
2018-10-19T07:09:21.665Z,4.97
2018-10-19T07:09:54.649Z,4.28
2018-10-19T07:10:27.597Z,4.42
2018-10-19T07:11:00.778Z,4.65
2018-10-19T07:11:33.888Z,5.62
2018-10-19T07:12:07.429Z,4.65
2018-10-19T07:12:40.962Z,4.42
2018-10-19T07:13:13.955Z,5.70
2018-10-19T07:13:46.973Z,5.12
2018-10-19T07:14:20.230Z,4.87
2018-10-19T07:14:53.381Z,4.58
2018-10-19T07:15:26.483Z,5.37
2018-10-19T07:15:59.632Z,5.28
2018-10-19T07:16:32.539Z,4.83
2018-10-19T07:17:05.732Z,4.58
2018-10-19T07:17:38.841Z,4.50
2018-10-19T07:18:12.046Z,5.30
2018-10-19T07:18:45.240Z,5.17
2018-10-19T07:19:18.952Z,5.97
2018-10-19T07:19:52.322Z,5.58
2018-10-19T07:20:25.261Z,5.12
2018-10-19T07:20:58.212Z,4.65
2018-10-19T07:21:31.237Z,5.05
2018-10-19T07:22:04.290Z,5.72
2018-10-19T07:22:37.463Z,5.30
2018-10-19T07:23:10.743Z,5.40
2018-10-19T07:23:43.659Z,7.10
2018-10-19T07:24:17.018Z,5.62
2018-10-19T07:24:50.197Z,6.55
2018-10-19T07:25:23.389Z,5.42
2018-10-19T07:25:56.534Z,4.78
2018-10-19T07:26:29.739Z,5.75